Flight Track Log - Related Links

Times and Time Zones

All times are in EDT time to prevent confusion due to time zone crossing. See the UAL118 flight status page for this flight to view local times or setup timezone preferences in your user account.

Time Position Orientation Groundspeed Altitude Reporting Facility
EDT Latitude Longitude Course Direction KTS MPH feet Rate Location/Type
Tue 06:37:00 AM 50.1747 8.1260 298° West  Level FlightAware Approximate
Tue 06:38:00 AM 50.2200 7.9739 299° West  Level FlightAware Approximate
Tue 06:39:00 AM 50.2730 7.8258 299° West  Level FlightAware Approximate
Tue 06:40:00 AM 50.3225 7.6748 295° West  Level FlightAware Approximate
Tue 06:41:00 AM 50.3683 7.5206 295° West  Level FlightAware Approximate
Tue 06:42:00 AM 50.4139 7.3662 295° West  Level FlightAware Approximate
Tue 06:43:00 AM 50.4637 7.2151 299° West  Level FlightAware Approximate
Tue 06:44:00 AM 50.5168 7.0663 298° West  Level FlightAware Approximate
Tue 06:45:00 AM 50.5673 6.9152 298° West  Level FlightAware Approximate
Tue 06:46:00 AM 50.6175 6.7637 294° West  Level FlightAware Approximate
Tue 06:47:00 AM 50.6622 6.6078 294° West  Level FlightAware Approximate
Tue 06:48:00 AM 50.7067 6.4516 294° West  Level FlightAware Approximate
Tue 06:49:00 AM 50.7510 6.2970 298° West  Level FlightAware Approximate
Tue 06:50:00 AM 50.8017 6.1453 298° West  Level FlightAware Approximate
Tue 06:51:00 AM 50.8501 5.9916 294° West  Level FlightAware Approximate
Tue 06:52:00 AM 50.8949 5.8350 294° West  Level FlightAware Approximate
Tue 06:53:00 AM 50.9402 5.6787 297° West  Level FlightAware Approximate
Tue 06:54:00 AM 50.9898 5.5254 297° West  Level FlightAware Approximate
Tue 06:54:42 AM 51.3600 6.3320 297° West 403 464 34,000  Level FlightAware ADS-B
Tue 06:55:00 AM 51.0391 5.3718 297° West  Level FlightAware Approximate
Tue 06:55:22 AM 51.4090 6.2520 314° West 403 464 34,000  Level FlightAware ADS-B
Tue 06:56:02 AM 51.4600 6.1690 315° West 403 464 34,000  Level FlightAware ADS-B
Tue 06:56:47 AM 51.5240 6.0630 314° West 403 464 34,000  Level FlightAware ADS-B
Tue 06:57:27 AM 51.5760 5.9770 314° West 403 464 34,000  Level FlightAware ADS-B
Tue 06:58:02 AM 51.6170 5.9090 314° West 403 464 34,000  Level FlightAware ADS-B
Tue 06:58:52 AM 51.6830 5.7990 314° West 402 463 34,000  Level FlightAware ADS-B
Tue 06:59:32 AM 51.7360 5.7100 314° West 403 464 34,000  Level FlightAware ADS-B
Tue 07:00:07 AM 51.7760 5.6430 314° West 403 464 34,000  Level FlightAware ADS-B
Tue 07:00:57 AM 51.8430 5.5300 314° West 402 463 34,000 -1,098 Level FlightAware ADS-B
Tue 07:01:29 AM 51.8852 5.4462 314° West 466 536 32,500  Descending FlightAware UK
Tue 07:01:37 AM 51.8950 5.4430 314° West 403 464 34,000  Climbing FlightAware ADS-B
Tue 07:02:05 AM 51.9357 5.3704 314° West 468 539 32,500  Descending FlightAware UK
Tue 07:02:17 AM 51.9430 5.3600 314° West 403 464 34,000  Climbing FlightAware ADS-B
Tue 07:02:35 AM 51.9743 5.3041 314° West 468 539 32,500 -2,143 Descending FlightAware UK
Tue 07:02:59 AM 52.0044 5.2506 312° West 470 541 32,500 3,333 Level FlightAware UK
Tue 07:03:02 AM 52.0020 5.2600 312° West 405 466 34,000 1,875 Climbing FlightAware ADS-B
Tue 07:03:47 AM 52.0620 5.1570 313° West 406 467 34,000 -1,200 Level FlightAware ADS-B
Tue 07:04:17 AM 52.1052 5.0788 313° West 470 541 32,500  Descending FlightAware UK
Tue 07:04:27 AM 52.1140 5.0680 313° West 406 467 34,000  Climbing FlightAware ADS-B
Tue 07:04:53 AM 52.1516 4.9990 313° West 468 539 32,500  Descending FlightAware UK
Tue 07:05:12 AM 52.1720 4.9670 313° West 406 467 34,000  Climbing FlightAware ADS-B
Tue 07:05:29 AM 52.1979 4.9190 313° West 468 539 32,500  Descending FlightAware UK
Tue 07:05:52 AM 52.2250 4.8750 313° West 406 467 34,000  Climbing FlightAware ADS-B
Tue 07:06:11 AM 52.2510 4.8246 313° West 468 539 32,500 -2,432 Descending FlightAware UK
Tue 07:06:29 AM 52.2738 4.7842 313° West 468 539 32,500 4,286 Level FlightAware UK
Tue 07:06:32 AM 52.2750 4.7890 313° West 406 467 34,000  Climbing FlightAware ADS-B
Tue 07:06:47 AM 52.2981 4.7451 313° West 468 539 32,500  Descending FlightAware UK
Tue 07:07:17 AM 52.3330 4.6880 313° West 407 468 34,000  Climbing FlightAware ADS-B
Tue 07:07:35 AM 52.3584 4.6365 313° West 470 541 32,500  Descending FlightAware UK
Tue 07:07:57 AM 52.3830 4.6000 313° West 407 468 34,000  Climbing FlightAware ADS-B
Tue 07:08:17 AM 52.4135 4.5438 313° West 470 541 32,500 -2,368 Descending FlightAware UK
Tue 07:08:35 AM 52.4364 4.5029 313° West 470 541 32,500 4,500 Level FlightAware UK
Tue 07:08:37 AM 52.4350 4.5090 313° West 408 470 34,000  Climbing FlightAware ADS-B
Tue 07:08:53 AM 52.4596 4.4622 313° West 470 541 32,500 -2,250 Descending FlightAware UK
Tue 07:09:17 AM 52.4916 4.4084 314° West 468 539 32,500 3,103 Level FlightAware UK
Tue 07:09:22 AM 52.4910 4.4100 314° West 409 471 34,000 2,000 Climbing FlightAware ADS-B
Tue 07:10:02 AM 52.5410 4.3230 313° West 409 471 34,000  Level FlightAware ADS-B
Tue 07:10:47 AM 52.6000 4.2160 312° West 408 470 34,000  Level FlightAware ADS-B
Tue 07:11:27 AM 52.6520 4.1250 313° West 407 468 34,000 -1,364 Level FlightAware ADS-B
Tue 07:11:53 AM 52.6895 4.0527 313° West 470 541 32,500  Descending FlightAware UK
Tue 07:12:07 AM 52.7010 4.0360 313° West 408 470 34,000  Climbing FlightAware ADS-B
Tue 07:12:29 AM 52.7352 3.9705 313° West 470 541 32,500  Descending FlightAware UK
Tue 07:12:52 AM 52.7570 3.9320 313° West 403 464 34,000  Climbing FlightAware ADS-B
Tue 07:13:11 AM 52.7835 3.8689 313° West 468 539 32,500 -2,432 Descending FlightAware UK
Tue 07:13:29 AM 52.8005 3.8221 301° West 468 539 32,500 4,286 Level FlightAware UK
Tue 07:13:32 AM 52.8000 3.8250 301° West 398 458 34,000  Climbing FlightAware ADS-B
Tue 07:13:59 AM 52.8254 3.7414 301° West 470 541 32,500  Descending FlightAware UK
Tue 07:14:12 AM 52.8350 3.7170 301° West 398 458 34,000  Climbing FlightAware ADS-B
Tue 07:14:29 AM 52.8509 3.6608 301° West 470 541 32,500  Descending FlightAware UK
Tue 07:14:57 AM 52.8740 3.5930 301° West 397 457 34,000  Climbing FlightAware ADS-B
Tue 07:15:23 AM 52.8965 3.5152 301° West 470 541 32,500  Descending FlightAware UK
Tue 07:15:32 AM 52.9010 3.5060 301° West 397 457 34,000 1,525 Climbing FlightAware ADS-B
Tue 07:16:22 AM 52.9450 3.3660 298° West 397 457 34,000  Level FlightAware ADS-B
Tue 07:17:02 AM 52.9790 3.2540 297° West 397 457 34,000 -1,636 Level FlightAware ADS-B
Tue 07:17:17 AM 52.9913 3.2070 297° West 472 543 32,500  Descending FlightAware UK
Tue 07:17:37 AM 53.0070 3.1640 297° West 397 457 34,000  Climbing FlightAware ADS-B
Tue 07:18:05 AM 53.0313 3.0769 297° West 470 541 32,500  Descending FlightAware UK
Tue 07:18:27 AM 53.0480 3.0310 297° West 395 455 34,000 1,452 Climbing FlightAware ADS-B
Tue 07:19:07 AM 53.0810 2.9210 297° West 396 456 34,000 -1,607 Level FlightAware ADS-B
Tue 07:19:23 AM 53.0955 2.8658 297° West 468 539 32,500  Descending FlightAware UK
Tue 07:19:47 AM 53.1140 2.8130 297° West 397 457 34,000  Climbing FlightAware ADS-B
Tue 07:20:11 AM 53.1348 2.7354 297° West 470 541 32,500  Descending FlightAware UK
Tue 07:20:32 AM 53.1510 2.6910 297° West 395 455 34,000  Climbing FlightAware ADS-B
Tue 07:20:59 AM 53.1741 2.6050 297° West 470 541 32,500  Descending FlightAware UK
Tue 07:21:12 AM 53.1830 2.5850 297° West 394 453 34,000  Climbing FlightAware ADS-B
Tue 07:21:29 AM 53.1985 2.5239 297° West 470 541 32,500 -2,571 Descending FlightAware UK
Tue 07:21:47 AM 53.2086 2.4732 288° West 470 541 32,500 3,214 Level FlightAware UK
Tue 07:21:57 AM 53.2150 2.4520 288° West 385 443 34,000  Climbing FlightAware ADS-B
Tue 07:22:16 AM 53.2226 2.3880 288° West 468 539 32,500 -2,432 Descending FlightAware UK
Tue 07:22:34 AM 53.2302 2.3363 284° West 468 539 32,500 4,286 Level FlightAware UK
Tue 07:22:37 AM 53.2310 2.3430 284° West 382 440 34,000  Climbing FlightAware ADS-B
Tue 07:22:58 AM 53.2399 2.2675 284° West 468 539 32,500  Descending FlightAware UK
Tue 07:23:22 AM 53.2510 2.2100 284° West 382 440 34,000  Climbing FlightAware ADS-B
Tue 07:23:52 AM 53.2622 2.1127 284° West 464 534 32,500  Descending FlightAware UK
Tue 07:24:02 AM 53.2670 2.0970 284° West 382 440 34,000  Climbing FlightAware ADS-B
Tue 07:24:22 AM 53.2746 2.0265 284° West 468 539 32,500 -2,368 Descending FlightAware UK
Tue 07:24:40 AM 53.2819 1.9749 283° West 468 539 32,500 3,600 Level FlightAware UK
Tue 07:24:47 AM 53.2850 1.9700 283° West 382 440 34,000  Climbing FlightAware ADS-B
Tue 07:25:04 AM 53.2918 1.9059 283° West 466 536 32,500  Descending FlightAware UK
Tue 07:25:27 AM 53.3020 1.8560 283° West 382 440 34,000  Climbing FlightAware ADS-B
Tue 07:25:58 AM 53.3138 1.7515 283° West 470 541 32,500  Descending FlightAware UK
Tue 07:26:12 AM 53.3200 1.7260 283° West 383 441 34,000 3,462 Climbing FlightAware ADS-B
Tue 07:26:24 AM 53.3259 1.6850 284° West 383 441 34,000 -3,214 Level FlightAware ADS-B
Tue 07:26:40 AM 53.3308 1.6309 284° West 470 541 32,500  Descending FlightAware UK
Tue 07:26:57 AM 53.3395 1.5885 284° West 382 440 34,000  Climbing FlightAware ADS-B
Tue 07:27:16 AM 53.3452 1.5274 284° West 470 541 32,500  Descending FlightAware UK
Tue 07:27:28 AM 53.3520 1.4992 284° West 382 440 34,000  Climbing FlightAware ADS-B
Tue 07:27:46 AM 53.3572 1.4407 284° West 470 541 32,500  Descending FlightAware UK
Tue 07:28:10 AM 53.3681 1.3819 284° West 381 438 34,000  Climbing FlightAware ADS-B
Tue 07:28:28 AM 53.3737 1.3211 284° West 472 543 32,500 -2,500 Descending FlightAware UK
Tue 07:28:46 AM 53.3807 1.2703 283° West 470 541 32,500 3,103 Level FlightAware UK
Tue 07:28:57 AM 53.3850 1.2570 283° West 380 437 34,000  Climbing FlightAware ADS-B
Tue 07:29:16 AM 53.3925 1.1840 283° West 470 541 32,500  Descending FlightAware UK
Tue 07:29:37 AM 53.4020 1.1370 283° West 378 435 34,000 1,364 Climbing FlightAware ADS-B
Tue 07:30:22 AM 53.4190 1.0120 283° West 377 434 34,000 -1,429 Level FlightAware ADS-B
Tue 07:30:40 AM 53.4248 0.9449 283° West 468 539 32,500 -2,500 Descending FlightAware UK
Tue 07:30:58 AM 53.4316 0.8936 283° West 470 541 32,500 4,091 Level FlightAware UK
Tue 07:31:02 AM 53.4340 0.9020 283° West 377 434 34,000  Climbing FlightAware ADS-B
Tue 07:31:28 AM 53.4429 0.8087 283° West 468 539 32,500  Descending FlightAware UK
Tue 07:31:47 AM 53.4500 0.7750 283° West 378 435 34,000 1,667 Climbing FlightAware ADS-B
Tue 07:32:22 AM 53.4640 0.6690 283° West 378 435 34,000 -1,525 Level FlightAware ADS-B
Tue 07:32:46 AM 53.4723 0.5854 283° West 468 539 32,500  Descending FlightAware UK
Tue 07:33:07 AM 53.4810 0.5420 283° West 377 434 34,000 1,364 Climbing FlightAware ADS-B
Tue 07:33:52 AM 53.4980 0.4140 283° West 378 435 34,000  Level FlightAware ADS-B
Tue 07:34:06 AM 53.5039 0.3638 281° West 379 436 34,000 -3,103 Level FlightAware ADS-B
Tue 07:34:21 AM 53.5077 0.3114 281° West 470 541 32,500  Descending FlightAware UK
Tue 07:34:37 AM 53.5151 0.2767 281° West 377 434 34,000  Climbing FlightAware ADS-B
Tue 07:34:57 AM 53.5209 0.2081 281° West 470 541 32,500  Descending FlightAware UK
Tue 07:35:08 AM 53.5266 0.1869 281° West 377 434 34,000 2,143 Climbing FlightAware ADS-B
Tue 07:35:39 AM 53.5378 0.0990 282° West 377 434 34,000 -1,636 Level FlightAware ADS-B
Tue 07:36:03 AM 53.5445 0.0195 282° West 470 541 32,500  Descending FlightAware UK
Tue 07:36:12 AM 53.5494 0.0053 282° West 376 433 34,000 2,308 Climbing FlightAware ADS-B
Tue 07:36:42 AM 53.5580 -0.0670 281° West 375 432 34,000  Level FlightAware ADS-B
Tue 07:36:45 AM 53.5611 -0.0883 284° West 377 434 34,000 -3,333 Level FlightAware ADS-B
Tue 07:37:09 AM 53.5681 -0.1693 284° West 470 541 32,500  Descending FlightAware UK
Tue 07:37:15 AM 53.5719 -0.1756 284° West 376 433 34,000  Climbing FlightAware ADS-B
Tue 07:37:57 AM 53.5848 -0.3060 284° West 468 539 32,500  Descending FlightAware UK
Tue 07:38:02 AM 53.5870 -0.2990 284° West 375 432 34,000  Climbing FlightAware ADS-B
Tue 07:38:33 AM 53.5974 -0.4091 284° West 466 536 32,500  Descending FlightAware UK
Tue 07:38:42 AM 53.6010 -0.4090 284° West 375 432 34,000  Climbing FlightAware ADS-B
Tue 07:38:57 AM 53.6058 -0.4780 284° West 464 534 32,500 -2,727 Descending FlightAware UK
Tue 07:39:15 AM 53.6120 -0.5297 281° West 464 534 32,500 3,000 Level FlightAware UK
Tue 07:39:27 AM 53.6170 -0.5410 281° West 378 435 34,000 2,571 Climbing FlightAware ADS-B
Tue 07:39:50 AM 53.6256 -0.6185 281° West 380 437 34,000 -2,143 Level FlightAware ADS-B
Tue 07:40:09 AM 53.6307 -0.6849 281° West 468 539 32,500  Descending FlightAware UK
Tue 07:40:32 AM 53.6402 -0.7404 281° West 382 440 34,000 -102 Climbing FlightAware ADS-B
Tue 07:41:08 AM 53.6512 -0.8601 281° West 464 534 32,400 100 Descending FlightAware UK
Tue 07:41:32 AM 53.6600 -0.9100 281° West 381 438 34,100 2,133 Climbing FlightAware ADS-B
Tue 07:41:53 AM 53.6677 -0.9759 281° West 384 442 34,000 -2,833 Descending FlightAware ADS-B
Tue 07:42:08 AM 53.6717 -1.0350 281° West 470 541 32,400  Descending FlightAware UK
Tue 07:42:25 AM 53.6788 -1.0714 281° West 383 441 34,000 1,959 Climbing FlightAware ADS-B
Tue 07:42:57 AM 53.6895 -1.1648 281° West 383 441 34,000  Level FlightAware ADS-B
Tue 07:43:34 AM 53.7017 -1.2715 281° West 384 442 34,000  Level FlightAware ADS-B
Tue 07:44:10 AM 53.7135 -1.3764 281° West 384 442 34,000 -1,731 Level FlightAware ADS-B
Tue 07:44:26 AM 53.7177 -1.4390 281° West 464 534 32,500  Descending FlightAware UK
Tue 07:45:02 AM 53.7290 -1.5150 281° West 383 441 34,000 2,143 Climbing FlightAware ADS-B
Tue 07:45:08 AM 53.7326 -1.5481 280° West 384 442 34,000  Level FlightAware ADS-B
Tue 07:45:42 AM 53.7430 -1.6430 281° West 386 444 34,000  Level FlightAware ADS-B
Tue 07:46:00 AM 53.7496 -1.7029 281° West 384 442 34,000 -2,368 Level FlightAware ADS-B
Tue 07:46:20 AM 53.7552 -1.7755 281° West 474 545 32,500  Descending FlightAware UK
Tue 07:46:36 AM 53.7609 -1.8068 281° West 387 445 34,000  Climbing FlightAware ADS-B
Tue 07:46:56 AM 53.7667 -1.8824 281° West 474 545 32,500  Descending FlightAware UK
Tue 07:47:08 AM 53.7712 -1.9018 281° West 388 447 34,000  Climbing FlightAware ADS-B
Tue 07:47:44 AM 53.7819 -2.0250 281° West 474 545 32,500  Descending FlightAware UK
Tue 07:47:47 AM 53.7830 -2.0170 281° West 388 447 34,000  Climbing FlightAware ADS-B
Tue 07:48:02 AM 53.7877 -2.0794 281° West 474 545 32,500 -2,727 Descending FlightAware UK
Tue 07:48:20 AM 53.7934 -2.1328 280° West 470 541 32,500 3,000 Level FlightAware UK
Tue 07:48:32 AM 53.7970 -2.1450 280° West 384 442 34,000  Climbing FlightAware ADS-B
Tue 07:48:50 AM 53.8027 -2.2211 280° West 476 548 32,500 -2,500 Descending FlightAware UK
Tue 07:49:08 AM 53.8083 -2.2744 280° West 478 550 32,500 4,091 Level FlightAware UK
Tue 07:49:12 AM 53.8090 -2.2650 280° West 385 443 34,000  Climbing FlightAware ADS-B
Tue 07:49:44 AM 53.8195 -2.3810 280° West 476 548 32,500  Descending FlightAware UK
Tue 07:49:57 AM 53.8230 -2.3930 280° West 382 440 34,000  Climbing FlightAware ADS-B
Tue 07:50:19 AM 53.8303 -2.4866 280° West 466 536 32,500  Descending FlightAware UK
Tue 07:50:37 AM 53.8350 -2.5100 280° West 375 432 34,000 1,552 Climbing FlightAware ADS-B
Tue 07:51:17 AM 53.8470 -2.6260 280° West 376 433 34,000 -1,154 Level FlightAware ADS-B
Tue 07:51:55 AM 53.8584 -2.7632 280° West 468 539 32,500  Descending FlightAware UK
Tue 07:51:57 AM 53.8580 -2.7430 280° West 376 433 34,000  Climbing FlightAware ADS-B
Tue 07:52:13 AM 53.8638 -2.8155 280° West 472 543 32,500 -2,647 Descending FlightAware UK
Tue 07:52:31 AM 53.8690 -2.8678 280° West 472 543 32,500 3,103 Level FlightAware UK
Tue 07:52:42 AM 53.8710 -2.8730 280° West 377 434 34,000  Climbing FlightAware ADS-B
Tue 07:53:19 AM 53.8828 -3.0073 280° West 462 532 32,500  Descending FlightAware UK
Tue 07:53:27 AM 53.8840 -3.0050 280° West 375 432 34,000  Climbing FlightAware ADS-B
Tue 07:53:43 AM 53.8894 -3.0763 280° West 464 534 32,500 -2,647 Descending FlightAware UK
Tue 07:54:01 AM 53.8945 -3.1286 279° West 466 536 32,500 3,750 Level FlightAware UK
Tue 07:54:07 AM 53.8950 -3.1210 279° West 378 435 34,000  Climbing FlightAware ADS-B
Tue 07:54:25 AM 53.9014 -3.1986 279° West 464 534 32,500 -2,500 Descending FlightAware UK
Tue 07:54:43 AM 53.9065 -3.2508 279° West 466 536 32,500 4,091 Level FlightAware UK
Tue 07:54:47 AM 53.9060 -3.2330 279° West 380 437 34,000  Climbing FlightAware ADS-B
Tue 07:55:07 AM 53.9133 -3.3220 279° West 470 541 32,500 -2,368 Descending FlightAware UK
Tue 07:55:25 AM 53.9184 -3.3747 279° West 472 543 32,500 3,600 Level FlightAware UK
Tue 07:55:32 AM 53.9180 -3.3620 279° West 382 440 34,000  Climbing FlightAware ADS-B
Tue 07:55:49 AM 53.9251 -3.4460 279° West 472 543 32,500  Descending FlightAware UK
Tue 07:56:12 AM 53.9310 -3.4930 279° West 384 442 34,000  Climbing FlightAware ADS-B
Tue 07:56:31 AM 53.9368 -3.5704 279° West 472 543 32,500 -2,093 Descending FlightAware UK
Tue 07:56:55 AM 53.9434 -3.6417 279° West 472 543 32,500 3,462 Level FlightAware UK
Tue 07:56:57 AM 53.9430 -3.6240 279° West 383 441 34,000  Climbing FlightAware ADS-B
Tue 07:57:19 AM 53.9498 -3.7129 279° West 470 541 32,500  Descending FlightAware UK
Tue 07:57:32 AM 53.9520 -3.7240 281° West 385 443 34,000  Climbing FlightAware ADS-B
Tue 07:57:37 AM 53.9561 -3.7661 281° West 468 539 32,500 -3,913 Descending FlightAware UK
Tue 07:57:55 AM 53.9644 -3.8194 281° West 472 543 32,500  Level FlightAware UK
Tue 07:58:13 AM 53.9750 -3.8719 289° West 476 548 32,500 4,091 Level FlightAware UK
Tue 07:58:17 AM 53.9760 -3.8600 289° West 399 459 34,000  Climbing FlightAware ADS-B
Tue 07:58:37 AM 53.9925 -3.9408 289° West 474 545 32,500 -2,432 Descending FlightAware UK
Tue 07:58:54 AM 54.0050 -3.9919 293° West 472 543 32,500 3,600 Level FlightAware UK
Tue 07:59:02 AM 54.0070 -3.9860 293° West 397 457 34,000  Climbing FlightAware ADS-B
Tue 07:59:42 AM 54.0426 -4.1277 293° West 470 541 32,500  Descending FlightAware UK
Tue 07:59:42 AM 54.0380 -4.0970 293° West 400 460 34,000  Climbing FlightAware ADS-B
Tue 08:00:06 AM 54.0624 -4.1954 293° West 468 539 32,500  Descending FlightAware UK
Tue 08:00:27 AM 54.0770 -4.2290 293° West 402 463 34,000 1,475 Climbing FlightAware ADS-B
Tue 08:01:07 AM 54.1080 -4.3360 296° West 405 466 34,000 -1,429 Level FlightAware ADS-B
Tue 08:01:30 AM 54.1320 -4.4341 296° West 472 543 32,500  Descending FlightAware UK
Tue 08:01:47 AM 54.1430 -4.4580 296° West 405 466 34,000  Climbing FlightAware ADS-B
Tue 08:02:12 AM 54.1662 -4.5548 296° West 470 541 32,500 -2,093 Descending FlightAware UK
Tue 08:02:30 AM 54.1808 -4.6067 296° West 470 541 32,500 4,500 Level FlightAware UK
Tue 08:02:32 AM 54.1780 -4.5830 296° West 406 467 34,000  Climbing FlightAware ADS-B
Tue 08:02:48 AM 54.1953 -4.6587 296° West 472 543 32,500 -2,647 Descending FlightAware UK
Tue 08:03:06 AM 54.2098 -4.7110 295° West 472 543 32,500 3,750 Level FlightAware UK
Tue 08:03:12 AM 54.2110 -4.7020 295° West 408 470 34,000  Climbing FlightAware ADS-B
Tue 08:03:30 AM 54.2293 -4.7807 295° West 474 545 32,500 -2,500 Descending FlightAware UK
Tue 08:03:48 AM 54.2439 -4.8332 296° West 476 548 32,500 4,091 Level FlightAware UK
Tue 08:03:52 AM 54.2440 -4.8190 296° West 409 471 34,000  Climbing FlightAware ADS-B
Tue 08:04:12 AM 54.2634 -4.9032 296° West 474 545 32,500 -2,368 Descending FlightAware UK
Tue 08:04:30 AM 54.2779 -4.9557 295° West 472 543 32,500 3,600 Level FlightAware UK
Tue 08:04:37 AM 54.2790 -4.9470 295° West 408 470 34,000  Climbing FlightAware ADS-B
Tue 08:04:54 AM 54.3006 -5.0232 295° West 472 543 32,500 -2,571 Descending FlightAware UK
Tue 08:05:12 AM 54.3208 -5.0713 306° West 474 545 32,500 3,913 Level FlightAware UK
Tue 08:05:17 AM 54.3200 -5.0550 306° West 422 486 34,000  Climbing FlightAware ADS-B
Tue 08:05:36 AM 54.3490 -5.1355 306° West 474 545 32,500 -2,432 Descending FlightAware UK
Tue 08:05:54 AM 54.3702 -5.1836 307° West 476 548 32,500 3,462 Level FlightAware UK
Tue 08:06:02 AM 54.3760 -5.1820 307° West 423 487 34,000  Climbing FlightAware ADS-B
Tue 08:06:18 AM 54.3983 -5.2480 307° West 474 545 32,500 -2,647 Descending FlightAware UK
Tue 08:06:36 AM 54.4192 -5.2965 307° West 474 545 32,500  Level FlightAware UK
Tue 08:06:54 AM 54.4401 -5.3450 307° West 474 545 32,500 4,286 Level FlightAware UK
Tue 08:06:57 AM 54.4380 -5.3260 307° West 424 488 34,000  Climbing FlightAware ADS-B
Tue 08:07:12 AM 54.4611 -5.3935 307° West 474 545 32,500 -2,727 Descending FlightAware UK
Tue 08:07:30 AM 54.4820 -5.4422 307° West 476 548 32,500 3,600 Level FlightAware UK
Tue 08:07:37 AM 54.4850 -5.4360 307° West 423 487 34,000  Climbing FlightAware ADS-B
Tue 08:07:54 AM 54.5097 -5.5073 307° West 472 543 32,500 -2,571 Descending FlightAware UK
Tue 08:08:12 AM 54.5304 -5.5562 306° West 474 545 32,500 3,214 Level FlightAware UK
Tue 08:08:22 AM 54.5370 -5.5590 306° West 422 486 34,000  Climbing FlightAware ADS-B
Tue 08:08:42 AM 54.5646 -5.6378 306° West 476 548 32,500 -2,368 Descending FlightAware UK
Tue 08:09:00 AM 54.5849 -5.6870 305° West 476 548 32,500 4,500 Level FlightAware UK
Tue 08:09:02 AM 54.5820 -5.6690 305° West 417 480 34,000  Climbing FlightAware ADS-B
Tue 08:09:18 AM 54.6015 -5.7385 305° West 474 545 32,500 -2,647 Descending FlightAware UK
Tue 08:09:36 AM 54.6168 -5.7915 297° West 472 543 32,500 3,103 Level FlightAware UK
Tue 08:09:47 AM 54.6200 -5.7930 297° West 410 472 34,000  Climbing FlightAware ADS-B
Tue 08:10:06 AM 54.6395 -5.8809 297° West 470 541 32,500 -2,432 Descending FlightAware UK
Tue 08:10:24 AM 54.6536 -5.9346 295° West 470 541 32,500 4,286 Level FlightAware UK
Tue 08:10:27 AM 54.6510 -5.9150 295° West 410 472 34,000  Climbing FlightAware ADS-B
Tue 08:10:42 AM 54.6675 -5.9879 295° West 470 541 32,500 -2,727 Descending FlightAware UK
Tue 08:11:00 AM 54.6815 -6.0417 294° West 468 539 32,500  Level FlightAware UK
Tue 08:11:18 AM 54.6951 -6.0961 293° West 470 541 32,500  Level FlightAware UK
Tue 08:11:36 AM 54.7081 -6.1498 293° West 472 543 32,500  Level FlightAware UK
Tue 08:11:54 AM 54.7217 -6.2046 293° West 476 548 32,500 2,903 Level FlightAware UK
Tue 08:12:07 AM 54.7260 -6.2110 293° West 415 478 34,000  Climbing FlightAware ADS-B
Tue 08:12:24 AM 54.7440 -6.2956 293° West 474 545 32,500 -2,571 Descending FlightAware UK
Tue 08:12:42 AM 54.7576 -6.3502 293° West 474 545 32,500 3,913 Level FlightAware UK
Tue 08:12:47 AM 54.7560 -6.3320 293° West 416 479 34,000  Climbing FlightAware ADS-B
Tue 08:13:12 AM 54.7800 -6.4414 293° West 476 548 32,500  Descending FlightAware UK
Tue 08:13:27 AM 54.7860 -6.4540 293° West 415 478 34,000  Climbing FlightAware ADS-B
Tue 08:13:42 AM 54.8025 -6.5326 293° West 478 550 32,500 -2,727 Descending FlightAware UK
Tue 08:14:00 AM 54.8160 -6.5875 293° West 476 548 32,500 3,000 Level FlightAware UK
Tue 08:14:12 AM 54.8190 -6.5900 293° West 413 475 34,000  Climbing FlightAware ADS-B
Tue 08:14:30 AM 54.8382 -6.6789 293° West 476 548 32,500 -2,500 Descending FlightAware UK
Tue 08:14:48 AM 54.8515 -6.7334 293° West 470 541 32,500 3,333 Level FlightAware UK
Tue 08:14:57 AM 54.8530 -6.7270 293° West 411 473 34,000  Climbing FlightAware ADS-B
Tue 08:15:12 AM 54.8691 -6.8059 293° West 466 536 32,500 -2,727 Descending FlightAware UK
Tue 08:15:30 AM 54.8822 -6.8601 293° West 464 534 32,500 3,600 Level FlightAware UK
Tue 08:15:37 AM 54.8820 -6.8480 293° West 407 468 34,000  Climbing FlightAware ADS-B
Tue 08:15:54 AM 54.8996 -6.9327 293° West 466 536 32,500 -2,571 Descending FlightAware UK
Tue 08:16:12 AM 54.9127 -6.9874 293° West 468 539 32,500 3,913 Level FlightAware UK
Tue 08:16:17 AM 54.9120 -6.9720 293° West 413 475 34,000  Climbing FlightAware ADS-B
Tue 08:16:36 AM 54.9303 -7.0608 293° West 472 543 32,500 -2,432 Descending FlightAware UK
Tue 08:16:54 AM 54.9436 -7.1161 293° West 472 543 32,500 4,286 Level FlightAware UK
Tue 08:16:57 AM 54.9420 -7.1000 293° West 417 480 34,000  Climbing FlightAware ADS-B
Tue 08:17:12 AM 54.9569 -7.1719 293° West 474 545 32,500 -2,727 Descending FlightAware UK
Tue 08:17:30 AM 54.9701 -7.2278 292° West 474 545 32,500 3,000 Level FlightAware UK
Tue 08:17:42 AM 54.9750 -7.2370 292° West 418 481 34,000  Climbing FlightAware ADS-B
Tue 08:18:00 AM 54.9921 -7.3208 292° West 478 550 32,500 -2,500 Descending FlightAware UK
Tue 08:18:18 AM 55.0053 -7.3765 292° West 476 548 32,500 3,333 Level FlightAware UK
Tue 08:18:27 AM 55.0080 -7.3790 292° West 414 476 34,000  Climbing FlightAware ADS-B
Tue 08:18:42 AM 55.0226 -7.4501 292° West 476 548 32,500 -2,727 Descending FlightAware UK
Tue 08:19:00 AM 55.0357 -7.5056 292° West 476 548 32,500 3,600 Level FlightAware UK
Tue 08:19:07 AM 55.0370 -7.5020 292° West 411 473 34,000  Climbing FlightAware ADS-B
Tue 08:19:24 AM 55.0530 -7.5795 292° West 474 545 32,500 -2,571 Descending FlightAware UK
Tue 08:19:42 AM 55.0660 -7.6348 292° West 472 543 32,500 3,913 Level FlightAware UK
Tue 08:19:47 AM 55.0660 -7.6250 292° West 410 472 34,000  Climbing FlightAware ADS-B
Tue 08:20:06 AM 55.0832 -7.7085 292° West 470 541 32,500 -2,432 Descending FlightAware UK
Tue 08:20:24 AM 55.0959 -7.7638 292° West 472 543 32,500 3,462 Level FlightAware UK
Tue 08:20:32 AM 55.0980 -7.7630 292° West 411 473 34,000  Climbing FlightAware ADS-B
Tue 08:20:48 AM 55.1129 -7.8377 292° West 468 539 32,500 -2,647 Descending FlightAware UK
Tue 08:21:06 AM 55.1256 -7.8932 292° West 462 532 32,500 3,750 Level FlightAware UK
Tue 08:21:12 AM 55.1270 -7.8870 292° West 411 473 34,000  Climbing FlightAware ADS-B
Tue 08:21:30 AM 55.1427 -7.9673 292° West 462 532 32,500 -2,500 Descending FlightAware UK
Tue 08:21:48 AM 55.1553 -8.0230 292° West 464 534 32,500 3,333 Level FlightAware UK
Tue 08:21:57 AM 55.1590 -8.0260 292° West 414 476 34,000  Climbing FlightAware ADS-B
Tue 08:22:12 AM 55.1723 -8.0978 292° West 466 536 32,500 -2,727 Descending FlightAware UK
Tue 08:22:30 AM 55.1851 -8.1543 292° West 470 541 32,500 4,500 Level FlightAware UK
Tue 08:22:32 AM 55.1830 -8.1340 292° West 418 481 34,000  Climbing FlightAware ADS-B
Tue 08:22:48 AM 55.1982 -8.2113 292° West 476 548 32,500 -2,647 Descending FlightAware UK
Tue 08:23:06 AM 55.2112 -8.2683 292° West 476 548 32,500 2,647 Level FlightAware UK
Tue 08:23:22 AM 55.2190 -8.2920 292° West 418 481 34,000  Climbing FlightAware ADS-B
Tue 08:23:42 AM 55.2368 -8.3820 292° West 468 539 32,500  Descending FlightAware UK
Tue 08:24:02 AM 55.2480 -8.4180 292° West 418 481 34,000  Climbing FlightAware ADS-B
Tue 08:24:18 AM 55.2622 -8.4958 292° West 468 539 32,500 -2,647 Descending FlightAware UK
Tue 08:24:36 AM 55.2750 -8.5527 292° West 470 541 32,500 3,750 Level FlightAware UK
Tue 08:24:42 AM 55.2750 -8.5430 292° West 420 483 34,000  Climbing FlightAware ADS-B
Tue 08:25:00 AM 55.2919 -8.6290 292° West 472 543 32,500 -2,500 Descending FlightAware UK
Tue 08:25:18 AM 55.3046 -8.6863 291° West 472 543 32,500 3,333 Level FlightAware UK
Tue 08:25:27 AM 55.3070 -8.6860 291° West 422 486 34,000  Climbing FlightAware ADS-B
Tue 08:25:48 AM 55.3257 -8.7814 291° West 474 545 32,500  Descending FlightAware UK
Tue 08:26:07 AM 55.3350 -8.8130 291° West 422 486 34,000  Climbing FlightAware ADS-B
Tue 08:26:30 AM 55.3552 -8.9161 291° West 474 545 32,500  Descending FlightAware UK
Tue 08:26:47 AM 55.3640 -8.9410 291° West 421 484 34,000  Climbing FlightAware ADS-B
Tue 08:26:48 AM 55.3678 -8.9738 291° West 474 545 32,500  Descending FlightAware UK
Tue 08:27:32 AM 55.3960 -9.0880 291° West 421 484 34,000 1,139 Climbing FlightAware ADS-B
Tue 08:28:07 AM 55.4200 -9.2020 290° West 421 484 34,000  Level FlightAware ADS-B
Tue 08:28:57 AM 55.4550 -9.3620 291° West 424 488 34,000  Level FlightAware ADS-B
Tue 08:29:27 AM 55.4760 -9.4600 291° West 425 489 34,000  Level FlightAware ADS-B
Tue 08:30:17 AM 55.5090 -9.6170 290° West 426 490 34,000  Level FlightAware ADS-B
Tue 08:30:57 AM 55.5380 -9.7520 291° West 425 489 34,000  Level FlightAware ADS-B
Tue 08:31:57 AM 55.5790 -9.9470 290° West 426 490 34,000  Level FlightAware ADS-B
Tue 08:32:42 AM 55.6090 -10.0930 290° West 426 490 34,000  Level FlightAware ADS-B
Tue 08:33:22 AM 55.6370 -10.2250 291° West 426 490 34,000  Level FlightAware ADS-B
Tue 08:34:02 AM 55.6620 -10.3510 289° West 426 490 34,000  Level FlightAware ADS-B
Tue 08:34:47 AM 55.6930 -10.5010 290° West 426 490 34,000  Level FlightAware ADS-B
Tue 08:35:27 AM 55.7200 -10.6340 290° West 426 490 34,000  Level FlightAware ADS-B
Tue 08:36:22 AM 55.7550 -10.8090 290° West 422 486 34,000  Level FlightAware ADS-B
Tue 08:37:07 AM 55.7850 -10.9570 290° West 420 483 34,000  Level FlightAware ADS-B
Tue 08:37:42 AM 55.8080 -11.0750 289° West 420 483 34,000  Level FlightAware ADS-B
Tue 08:38:32 AM 55.8400 -11.2390 289° West 420 483 34,000  Level FlightAware ADS-B
Tue 08:39:12 AM 55.8660 -11.3700 290° West 420 483 34,000  Level FlightAware ADS-B
Tue 08:39:47 AM 55.8880 -11.4840 289° West 421 484 34,000  Level FlightAware ADS-B
Tue 08:40:37 AM 55.9200 -11.6490 289° West 421 484 34,000  Level FlightAware ADS-B
Tue 08:41:07 AM 55.9370 -11.7410 288° West 420 483 34,000  Level FlightAware ADS-B
Tue 08:41:52 AM 55.9600 -11.8760 287° West 420 483 34,000  Level FlightAware ADS-B
Tue 08:42:42 AM 55.9840 -12.0170 287° West 420 483 34,000  Level FlightAware ADS-B
Tue 08:43:22 AM 56.0040 -12.1300 288° West 420 483 34,000  Level FlightAware ADS-B
Tue 08:44:02 AM 56.0230 -12.2430 287° West 420 483 34,000  Level FlightAware ADS-B
Tue 08:44:42 AM 56.0420 -12.3560 287° West 420 483 34,000  Level FlightAware ADS-B
Tue 08:45:22 AM 56.0620 -12.4690 288° West 420 483 34,000  Level FlightAware ADS-B
Tue 08:46:12 AM 56.0860 -12.6110 287° West 420 483 34,000  Level FlightAware ADS-B
Tue 08:46:52 AM 56.1050 -12.7240 287° West 420 483 34,000  Level FlightAware ADS-B
Tue 08:47:32 AM 56.1240 -12.8380 287° West 420 483 34,000  Level FlightAware ADS-B
Tue 08:48:12 AM 56.1440 -12.9510 288° West 420 483 34,000  Level FlightAware ADS-B
Tue 08:48:52 AM 56.1630 -13.0640 287° West 420 483 34,000  Level FlightAware ADS-B
Tue 08:49:42 AM 56.1870 -13.2060 287° West 420 483 34,000  Level FlightAware ADS-B
Tue 08:50:22 AM 56.2060 -13.3200 287° West 420 483 34,000  Level FlightAware ADS-B
Tue 08:51:02 AM 56.2260 -13.4330 288° West 420 483 34,000  Level FlightAware ADS-B
Tue 08:53:00 AM 56.2435 -13.8309 275° West  Level Estimated
Tue 08:54:00 AM 56.2520 -14.0334 274° West  Level Estimated
Tue 08:55:00 AM 56.2601 -14.2360 274° West  Level Estimated
Tue 08:56:00 AM 56.2678 -14.4387 274° West  Level Estimated
Tue 08:57:00 AM 56.2753 -14.6414 274° West  Level Estimated
Tue 08:58:00 AM 56.2824 -14.8442 274° West  Level Estimated
Tue 08:59:00 AM 56.2891 -15.0471 274° West  Level Estimated
Tue 09:00:00 AM 56.2956 -15.2501 273° West  Level Estimated
Tue 09:01:00 AM 56.3017 -15.4531 273° West  Level Estimated
Tue 09:02:00 AM 56.3076 -15.6629 273° West  Level Estimated
Tue 09:03:00 AM 56.3133 -15.8729 273° West  Level Estimated
Tue 09:04:00 AM 56.3185 -16.0829 273° West  Level Estimated
Tue 09:05:00 AM 56.3234 -16.2929 272° West  Level Estimated
Tue 09:06:00 AM 56.3279 -16.5030 272° West  Level Estimated
Tue 09:07:00 AM 56.3321 -16.7131 272° West  Level Estimated
Tue 09:08:00 AM 56.3360 -16.9233 272° West  Level Estimated
Tue 09:09:00 AM 56.3394 -17.1336 272° West  Level Estimated
Tue 09:10:00 AM 56.3425 -17.3438 272° West  Level Estimated
Tue 09:11:00 AM 56.3453 -17.5541 271° West  Level Estimated
Tue 09:12:00 AM 56.3477 -17.7644 271° West  Level Estimated
Tue 09:13:00 AM 56.3498 -17.9748 271° West  Level Estimated
Tue 09:14:00 AM 56.3515 -18.1851 271° West  Level Estimated
Tue 09:15:00 AM 56.3528 -18.3955 271° West  Level Estimated
Tue 09:16:00 AM 56.3538 -18.6059 271° West  Level Estimated
Tue 09:17:00 AM 56.3544 -18.8163 270° West  Level Estimated
Tue 09:18:00 AM 56.3547 -19.0268 270° West  Level Estimated
Tue 09:19:00 AM 56.3546 -19.2372 270° West  Level Estimated
Tue 09:20:00 AM 56.3541 -19.4476 270° West  Level Estimated
Tue 09:21:00 AM 56.3533 -19.6580 270° West  Level Estimated
Tue 09:21:48 AM 57.0000 -20.0000 274° West 435 501 34,000  Level ETMS Enhanced Traffic Management System
Tue 09:22:00 AM 56.3522 -19.8684 270° West  Level Estimated
Tue 09:23:00 AM 56.3507 -20.0787 269° West  Level Estimated
Tue 09:24:00 AM 56.3488 -20.2891 269° West  Level Estimated
Tue 09:25:00 AM 56.3466 -20.4994 269° West  Level Estimated
Tue 09:26:00 AM 56.3440 -20.7097 269° West  Level Estimated
Tue 09:27:00 AM 57.0523 -21.5523 273° West 435 501 34,000  Level FlightAware Transoceanic
Tue 09:28:00 AM 57.0583 -21.7744 273° West 435 501 34,000  Level FlightAware Transoceanic
Tue 09:29:00 AM 57.0638 -21.9966 273° West 435 501 34,000  Level FlightAware Transoceanic
Tue 09:30:00 AM 57.0689 -22.2188 272° West 435 501 34,000  Level FlightAware Transoceanic
Tue 09:31:00 AM 57.0736 -22.4411 272° West 435 501 34,000  Level FlightAware Transoceanic
Tue 09:32:00 AM 57.0780 -22.6634 272° West 435 501 34,000  Level FlightAware Transoceanic
Tue 09:33:00 AM 57.0819 -22.8858 272° West 435 501 34,000  Level FlightAware Transoceanic
Tue 09:34:00 AM 57.0854 -23.1082 272° West 435 501 34,000  Level FlightAware Transoceanic
Tue 09:35:00 AM 57.0886 -23.3307 271° West 435 501 34,000  Level FlightAware Transoceanic
Tue 09:36:00 AM 57.0914 -23.5532 271° West 435 501 34,000  Level FlightAware Transoceanic
Tue 09:37:00 AM 57.0937 -23.7757 271° West 435 501 34,000  Level FlightAware Transoceanic
Tue 09:38:00 AM 57.0957 -23.9983 271° West 435 501 34,000  Level FlightAware Transoceanic
Tue 09:39:00 AM 57.0973 -24.2209 271° West 435 501 34,000  Level FlightAware Transoceanic
Tue 09:40:00 AM 57.0985 -24.4435 270° West 435 501 34,000  Level FlightAware Transoceanic
Tue 09:41:00 AM 57.0993 -24.6661 270° West 435 501 34,000  Level FlightAware Transoceanic
Tue 09:42:00 AM 57.0997 -24.8887 270° West 435 501 34,000  Level FlightAware Transoceanic
Tue 09:43:00 AM 57.0997 -25.1113 270° West 435 501 34,000  Level FlightAware Transoceanic
Tue 09:44:00 AM 57.0993 -25.3339 270° West 435 501 34,000  Level FlightAware Transoceanic
Tue 09:45:00 AM 57.0985 -25.5565 270° West 435 501 34,000  Level FlightAware Transoceanic
Tue 09:46:00 AM 57.0973 -25.7791 269° West 435 501 34,000  Level FlightAware Transoceanic
Tue 09:47:00 AM 57.0957 -26.0017 269° West 435 501 34,000  Level FlightAware Transoceanic
Tue 09:48:00 AM 57.0937 -26.2243 269° West 435 501 34,000  Level FlightAware Transoceanic
Tue 09:49:00 AM 57.0914 -26.4468 269° West 435 501 34,000  Level FlightAware Transoceanic
Tue 09:50:00 AM 57.0886 -26.6693 269° West 435 501 34,000  Level FlightAware Transoceanic
Tue 09:51:00 AM 57.0854 -26.8918 268° West 435 501 34,000  Level FlightAware Transoceanic
Tue 09:52:00 AM 57.0819 -27.1142 268° West 435 501 34,000  Level FlightAware Transoceanic
Tue 09:53:00 AM 57.0780 -27.3366 268° West 435 501 34,000  Level FlightAware Transoceanic
Tue 09:54:00 AM 57.0736 -27.5589 268° West 435 501 34,000  Level FlightAware Transoceanic
Tue 09:55:00 AM 57.0689 -27.7812 268° West 435 501 34,000  Level FlightAware Transoceanic
Tue 09:56:00 AM 57.0638 -28.0034 267° West 435 501 34,000  Level FlightAware Transoceanic
Tue 09:57:00 AM 57.0583 -28.2256 267° West 435 501 34,000  Level FlightAware Transoceanic
Tue 09:58:00 AM 57.0523 -28.4477 267° West 435 501 34,000  Level FlightAware Transoceanic
Tue 09:59:00 AM 57.0461 -28.6697 267° West 435 501 34,000  Level FlightAware Transoceanic
Tue 10:00:00 AM 57.0393 -28.8916 267° West 435 501 34,000  Level FlightAware Transoceanic
Tue 10:01:00 AM 57.0323 -29.1135 267° West 435 501 34,000  Level FlightAware Transoceanic
Tue 10:02:00 AM 57.0248 -29.3353 266° West 435 501 34,000  Level FlightAware Transoceanic
Tue 10:03:00 AM 57.0169 -29.5569 266° West 435 501 34,000  Level FlightAware Transoceanic
Tue 10:04:00 AM 57.0087 -29.7785 266° West 435 501 34,000  Level FlightAware Transoceanic
Tue 10:05:00 AM 57.0005 -29.9871 266° West  Level FlightAware Approximate
Tue 10:05:52 AM 57.0000 -30.0000 264° West 448 516 34,000  Level ETMS Enhanced Traffic Management System
Tue 10:06:00 AM 56.9921 -30.1956 266° West  Level FlightAware Approximate
Tue 10:07:00 AM 56.9893 -30.1821 264° West  Level FlightAware Approximate
Tue 10:08:00 AM 56.9768 -30.3899 264° West  Level FlightAware Approximate
Tue 10:09:00 AM 56.9639 -30.5975 264° West  Level FlightAware Approximate
Tue 10:10:00 AM 56.9507 -30.8049 263° West  Level FlightAware Approximate
Tue 10:11:00 AM 56.9372 -31.0122 263° West  Level FlightAware Approximate
Tue 10:12:00 AM 56.8815 -31.8134 262° West 448 516 34,000  Level FlightAware Transoceanic
Tue 10:13:00 AM 56.8648 -32.0392 262° West 448 516 34,000  Level FlightAware Transoceanic
Tue 10:14:00 AM 56.8478 -32.2648 262° West 448 516 34,000  Level FlightAware Transoceanic
Tue 10:15:00 AM 56.8303 -32.4902 262° West 448 516 34,000  Level FlightAware Transoceanic
Tue 10:16:00 AM 56.8124 -32.7154 262° West 448 516 34,000  Level FlightAware Transoceanic
Tue 10:17:00 AM 56.7942 -32.9404 261° West 448 516 34,000  Level FlightAware Transoceanic
Tue 10:18:00 AM 56.7755 -33.1652 261° West 448 516 34,000  Level FlightAware Transoceanic
Tue 10:19:00 AM 56.7564 -33.3897 261° West 448 516 34,000  Level FlightAware Transoceanic
Tue 10:20:00 AM 56.7369 -33.6140 261° West 448 516 34,000  Level FlightAware Transoceanic
Tue 10:21:00 AM 56.7170 -33.8381 261° West 448 516 34,000  Level FlightAware Transoceanic
Tue 10:22:00 AM 56.6967 -34.0619 261° West 448 516 34,000  Level FlightAware Transoceanic
Tue 10:23:00 AM 56.6760 -34.2855 260° West 448 516 34,000  Level FlightAware Transoceanic
Tue 10:24:00 AM 56.6549 -34.5089 260° West 448 516 34,000  Level FlightAware Transoceanic
Tue 10:25:00 AM 56.6334 -34.7319 260° West 448 516 34,000  Level FlightAware Transoceanic
Tue 10:26:00 AM 56.6115 -34.9548 260° West 448 516 34,000  Level FlightAware Transoceanic
Tue 10:27:00 AM 56.5892 -35.1773 260° West 448 516 34,000  Level FlightAware Transoceanic
Tue 10:28:00 AM 56.5666 -35.3997 259° West 448 516 34,000  Level FlightAware Transoceanic
Tue 10:29:00 AM 56.5435 -35.6217 259° West 448 516 34,000  Level FlightAware Transoceanic
Tue 10:30:00 AM 56.5200 -35.8434 259° West 448 516 34,000  Level FlightAware Transoceanic
Tue 10:31:00 AM 56.4961 -36.0649 259° West 448 516 34,000  Level FlightAware Transoceanic
Tue 10:32:00 AM 56.4719 -36.2862 259° West 448 516 34,000  Level FlightAware Transoceanic
Tue 10:33:00 AM 56.4472 -36.5071 258° West 448 516 34,000  Level FlightAware Transoceanic
Tue 10:34:00 AM 56.4222 -36.7277 258° West 448 516 34,000  Level FlightAware Transoceanic
Tue 10:35:00 AM 56.3967 -36.9480 258° West 448 516 34,000  Level FlightAware Transoceanic
Tue 10:36:00 AM 56.3709 -37.1681 258° West 448 516 34,000  Level FlightAware Transoceanic
Tue 10:37:00 AM 56.3447 -37.3878 258° West 448 516 34,000  Level FlightAware Transoceanic
Tue 10:38:00 AM 56.3181 -37.6073 258° West 448 516 34,000  Level FlightAware Transoceanic
Tue 10:39:00 AM 56.2911 -37.8264 257° West 448 516 34,000  Level FlightAware Transoceanic
Tue 10:40:00 AM 56.2637 -38.0452 257° West 448 516 34,000  Level FlightAware Transoceanic
Tue 10:41:00 AM 56.2359 -38.2637 257° West 448 516 34,000  Level FlightAware Transoceanic
Tue 10:42:00 AM 56.2077 -38.4819 257° West 448 516 34,000  Level FlightAware Transoceanic
Tue 10:43:00 AM 56.1792 -38.6998 257° West 448 516 34,000  Level FlightAware Transoceanic
Tue 10:44:00 AM 56.1503 -38.9173 256° West 448 516 34,000  Level FlightAware Transoceanic
Tue 10:45:00 AM 56.1210 -39.1345 256° West 448 516 34,000  Level FlightAware Transoceanic
Tue 10:46:00 AM 56.0913 -39.3514 256° West 448 516 34,000  Level FlightAware Transoceanic
Tue 10:47:00 AM 56.0612 -39.5679 256° West 448 516 34,000  Level FlightAware Transoceanic
Tue 10:48:00 AM 56.0308 -39.7841 256° West 448 516 34,000 268 Level FlightAware Transoceanic
Tue 10:49:00 AM 56.0027 -39.9815 256° West  Level FlightAware Approximate
Tue 10:50:00 AM 55.9742 -40.1787 256° West  Level FlightAware Approximate
Tue 10:50:44 AM 56.0000 -40.0000 255° West 436 502 35,000  Level ETMS Enhanced Traffic Management System
Tue 10:51:00 AM 55.9744 -40.1590 254° West  Level FlightAware Approximate
Tue 10:52:00 AM 55.9425 -40.3544 254° West  Level FlightAware Approximate
Tue 10:53:00 AM 55.9104 -40.5494 254° West  Level FlightAware Approximate
Tue 10:54:00 AM 55.8780 -40.7440 254° West  Level FlightAware Approximate
Tue 10:55:00 AM 55.8452 -40.9384 253° West  Level FlightAware Approximate
Tue 10:56:00 AM 55.7362 -41.6652 254° West 436 502 35,000  Level FlightAware Transoceanic
Tue 10:57:00 AM 55.7016 -41.8718 253° West 436 502 35,000  Level FlightAware Transoceanic
Tue 10:58:00 AM 55.6667 -42.0779 253° West 436 502 35,000  Level FlightAware Transoceanic
Tue 10:59:00 AM 55.6315 -42.2837 253° West 436 502 35,000  Level FlightAware Transoceanic
Tue 11:00:00 AM 55.5959 -42.4892 253° West 436 502 35,000  Level FlightAware Transoceanic
Tue 11:01:00 AM 55.5600 -42.6942 253° West 436 502 35,000  Level FlightAware Transoceanic
Tue 11:02:00 AM 55.5237 -42.8989 253° West 436 502 35,000  Level FlightAware Transoceanic
Tue 11:03:00 AM 55.4871 -43.1032 252° West 436 502 35,000  Level FlightAware Transoceanic
Tue 11:04:00 AM 55.4501 -43.3072 252° West 436 502 35,000  Level FlightAware Transoceanic
Tue 11:05:00 AM 55.4129 -43.5107 252° West 436 502 35,000  Level FlightAware Transoceanic
Tue 11:06:00 AM 55.3752 -43.7138 252° West 436 502 35,000  Level FlightAware Transoceanic
Tue 11:07:00 AM 55.3373 -43.9166 252° West 436 502 35,000  Level FlightAware Transoceanic
Tue 11:08:00 AM 55.2990 -44.1190 252° West 436 502 35,000  Level FlightAware Transoceanic
Tue 11:09:00 AM 55.2603 -44.3210 251° West 436 502 35,000  Level FlightAware Transoceanic
Tue 11:10:00 AM 55.2214 -44.5226 251° West 436 502 35,000  Level FlightAware Transoceanic
Tue 11:11:00 AM 55.1821 -44.7238 251° West 436 502 35,000  Level FlightAware Transoceanic
Tue 11:12:00 AM 55.1425 -44.9246 251° West 436 502 35,000  Level FlightAware Transoceanic
Tue 11:13:00 AM 55.1025 -45.1250 251° West 436 502 35,000  Level FlightAware Transoceanic
Tue 11:14:00 AM 55.0622 -45.3250 251° West 436 502 35,000  Level FlightAware Transoceanic
Tue 11:15:00 AM 55.0216 -45.5246 250° West 436 502 35,000  Level FlightAware Transoceanic
Tue 11:16:00 AM 54.9807 -45.7237 250° West 436 502 35,000  Level FlightAware Transoceanic
Tue 11:17:00 AM 54.9394 -45.9225 250° West 436 502 35,000  Level FlightAware Transoceanic
Tue 11:18:00 AM 54.8978 -46.1209 250° West 436 502 35,000  Level FlightAware Transoceanic
Tue 11:19:00 AM 54.8559 -46.3188 250° West 436 502 35,000  Level FlightAware Transoceanic
Tue 11:20:00 AM 54.8137 -46.5164 250° West 436 502 35,000  Level FlightAware Transoceanic
Tue 11:21:00 AM 54.7711 -46.7135 249° West 436 502 35,000  Level FlightAware Transoceanic
Tue 11:22:00 AM 54.7283 -46.9102 249° West 436 502 35,000  Level FlightAware Transoceanic
Tue 11:23:00 AM 54.6851 -47.1065 249° West 436 502 35,000  Level FlightAware Transoceanic
Tue 11:24:00 AM 54.6416 -47.3024 249° West 436 502 35,000  Level FlightAware Transoceanic
Tue 11:25:00 AM 54.5978 -47.4979 249° West 436 502 35,000  Level FlightAware Transoceanic
Tue 11:26:00 AM 54.5536 -47.6929 249° West 436 502 35,000  Level FlightAware Transoceanic
Tue 11:27:00 AM 54.5092 -47.8875 248° West 436 502 35,000  Level FlightAware Transoceanic
Tue 11:28:00 AM 54.4644 -48.0817 248° West 436 502 35,000  Level FlightAware Transoceanic
Tue 11:29:00 AM 54.4194 -48.2755 248° West 436 502 35,000  Level FlightAware Transoceanic
Tue 11:30:00 AM 54.3740 -48.4688 248° West 436 502 35,000  Level FlightAware Transoceanic
Tue 11:31:00 AM 54.3283 -48.6617 248° West 436 502 35,000  Level FlightAware Transoceanic
Tue 11:32:00 AM 54.2823 -48.8542 248° West 436 502 35,000  Level FlightAware Transoceanic
Tue 11:33:00 AM 54.2360 -49.0462 247° West 436 502 35,000  Level FlightAware Transoceanic
Tue 11:34:00 AM 54.1894 -49.2379 247° West 436 502 35,000  Level FlightAware Transoceanic
Tue 11:35:00 AM 54.1425 -49.4291 247° West 436 502 35,000  Level FlightAware Transoceanic
Tue 11:36:00 AM 54.0953 -49.6198 247° West 436 502 35,000  Level FlightAware Transoceanic
Tue 11:37:00 AM 54.0478 -49.8101 247° West 436 502 35,000  Level FlightAware Transoceanic
Tue 11:38:00 AM 54.0030 -49.9883 247° West  Level FlightAware Approximate
Tue 11:39:00 AM 53.9578 -50.1661 247° West  Level FlightAware Approximate
Tue 11:39:00 AM 54.0000 -50.0000 251° West 424 488 35,000  Level ETMS Enhanced Traffic Management System
Tue 11:40:00 AM 53.9641 -50.1568 249° West  Level FlightAware Approximate
Tue 11:41:00 AM 53.9225 -50.3369 249° West  Level FlightAware Approximate
Tue 11:42:00 AM 53.8807 -50.5167 249° West  Level FlightAware Approximate
Tue 11:43:00 AM 53.8386 -50.6961 248° West  Level FlightAware Approximate
Tue 11:44:00 AM 53.7962 -50.8751 248° West  Level FlightAware Approximate
Tue 11:45:00 AM 53.7181 -51.3133 249° West 424 488 35,000  Level FlightAware Transoceanic
Tue 11:46:00 AM 53.6766 -51.4995 249° West 424 488 35,000  Level FlightAware Transoceanic
Tue 11:47:00 AM 53.6349 -51.6853 249° West 424 488 35,000  Level FlightAware Transoceanic
Tue 11:48:00 AM 53.5929 -51.8707 249° West 424 488 35,000  Level FlightAware Transoceanic
Tue 11:49:00 AM 53.5506 -52.0558 249° West 424 488 35,000  Level FlightAware Transoceanic
Tue 11:50:00 AM 53.5080 -52.2404 249° West 424 488 35,000  Level FlightAware Transoceanic
Tue 11:51:00 AM 53.4651 -52.4248 249° West 424 488 35,000  Level FlightAware Transoceanic
Tue 11:52:00 AM 53.4220 -52.6087 248° West 424 488 35,000  Level FlightAware Transoceanic
Tue 11:53:00 AM 53.3785 -52.7923 248° West 424 488 35,000  Level FlightAware Transoceanic
Tue 11:54:00 AM 53.3348 -52.9754 248° West 424 488 35,000  Level FlightAware Transoceanic
Tue 11:55:00 AM 53.2908 -53.1583 248° West 424 488 35,000  Level FlightAware Transoceanic
Tue 11:55:58 AM 53.3000 -53.2167 245° Southwest 430 495 35,000  Level Gander Center
Tue 11:56:00 AM 53.2465 -53.3407 248° West 424 488 35,000  Level FlightAware Transoceanic
Tue 11:56:58 AM 53.2333 -53.4000 239° Southwest 430 495 35,000  Level Gander Center
Tue 11:57:00 AM 53.2020 -53.5228 248° West 424 488 35,000  Level FlightAware Transoceanic
Tue 11:57:58 AM 53.2000 -53.5667 252° West 430 495 35,000  Level Gander Center
Tue 11:58:00 AM 53.1572 -53.7044 248° West 424 488 35,000  Level FlightAware Transoceanic
Tue 11:58:58 AM 53.1500 -53.7500 246° West 430 495 35,000  Level Gander Center
Tue 11:59:00 AM 53.1120 -53.8857 247° West 424 488 35,000  Level FlightAware Transoceanic
Tue 11:59:58 AM 53.1000 -53.9167 244° Southwest 430 495 35,000  Level Gander Center
Tue 12:00:00 PM 53.0030 -53.9402 197° South  Level FlightAware Approximate
Tue 12:00:58 PM 53.0500 -54.1333 249° West 430 495 35,000  Level Gander Center
Tue 12:01:00 PM 52.9996 -54.0014 245° Southwest  Level FlightAware Approximate
Tue 12:01:58 PM 52.9833 -54.2833 234° Southwest 420 483 36,200  Level Gander Center
Tue 12:02:58 PM 52.9333 -54.4500 244° Southwest 420 483 37,400 1,450 Climbing Gander Center
Tue 12:03:58 PM 52.8833 -54.6500 248° West 420 483 39,100 1,300 Climbing Gander Center
Tue 12:04:58 PM 52.8167 -54.8333 239° Southwest 420 483 40,000 450 Climbing Gander Center
Tue 12:05:58 PM 52.7667 -55.0000 244° Southwest 420 483 40,000  Level Gander Center
Tue 12:06:58 PM 52.7000 -55.1833 239° Southwest 420 483 40,000  Level Gander Center
Tue 12:07:26 PM 52.6833 -55.2500 248° West 420 483 40,000  Level Moncton Center
Tue 12:08:26 PM 52.6167 -55.4333 239° Southwest 420 483 40,000  Level Moncton Center
Tue 12:09:26 PM 52.5667 -55.5833 241° Southwest 430 495 40,000  Level Moncton Center
Tue 12:09:58 PM 52.5500 -55.7000 257° West 420 483 40,000  Level Gander Center
Tue 12:10:58 PM 52.4833 -55.8500 234° Southwest 420 483 40,000  Level Gander Center
Tue 12:11:26 PM 52.4667 -55.9333 252° West 430 495 40,000  Level Moncton Center
Tue 12:12:26 PM 52.4000 -56.0833 234° Southwest 420 483 40,000  Level Moncton Center
Tue 12:12:58 PM 52.3667 -56.1833 241° Southwest 410 472 40,000  Level Gander Center
Tue 12:13:26 PM 52.3500 -56.2500 248° West 420 483 40,000  Level Moncton Center
Tue 12:14:26 PM 52.2833 -56.4333 239° Southwest 420 483 40,000  Level Moncton Center
Tue 12:14:58 PM 52.2500 -56.5333 241° Southwest 420 483 40,000  Level Gander Center
Tue 12:15:58 PM 52.1833 -56.7000 237° Southwest 420 483 40,000  Level Gander Center
Tue 12:16:26 PM 52.1667 -56.7500 241° Southwest 430 495 40,000  Level Moncton Center
Tue 12:17:26 PM 52.1000 -56.9333 239° Southwest 430 495 40,000  Level Moncton Center
Tue 12:17:58 PM 52.0667 -57.0167 237° Southwest 430 495 40,000  Level Gander Center
Tue 12:18:58 PM 52.0167 -57.1833 244° Southwest 430 495 40,000  Level Gander Center
Tue 12:19:26 PM 51.9667 -57.2500 219° Southwest 430 495 40,000  Level Moncton Center
Tue 12:20:26 PM 51.9167 -57.4167 244° Southwest 430 495 40,000  Level Moncton Center
Tue 12:20:58 PM 51.8833 -57.5167 242° Southwest 430 495 40,000  Level Gander Center
Tue 12:21:26 PM 51.8667 -57.5833 248° West 430 495 40,000  Level Moncton Center
Tue 12:21:58 PM 51.8167 -57.6833 231° Southwest 430 495 40,000  Level Gander Center
Tue 12:22:58 PM 51.7500 -57.8500 237° Southwest 430 495 40,000  Level Gander Center
Tue 12:23:58 PM 51.7000 -58.0167 244° Southwest 430 495 40,000  Level Gander Center
Tue 12:24:58 PM 51.6333 -58.1833 237° Southwest 430 495 40,000  Level Gander Center
Tue 12:25:26 PM 51.6000 -58.2500 231° Southwest 420 483 40,000  Level Moncton Center
Tue 12:26:26 PM 51.5333 -58.4000 234° Southwest 430 495 40,000  Level Moncton Center
Tue 12:27:26 PM 51.4667 -58.5667 237° Southwest 420 483 40,000  Level Moncton Center
Tue 12:27:58 PM 51.4500 -58.6500 252° West 420 483 40,000  Level Gander Center
Tue 12:28:58 PM 51.3833 -58.8167 237° Southwest 420 483 40,000  Level Gander Center
Tue 12:29:58 PM 51.3167 -58.9500 231° Southwest 420 483 40,000  Level Gander Center
Tue 12:30:58 PM 51.2500 -59.1167 237° Southwest 420 483 40,000  Level Gander Center
Tue 12:31:58 PM 51.1833 -59.2833 238° Southwest 420 483 40,000  Level Gander Center
Tue 12:32:58 PM 51.1167 -59.4500 238° Southwest 420 483 40,000  Level Gander Center
Tue 12:33:58 PM 51.0667 -59.5833 239° Southwest 420 483 40,000  Level Gander Center
Tue 12:34:58 PM 51.0000 -59.7333 235° Southwest 410 472 40,000  Level Gander Center
Tue 12:35:58 PM 50.9333 -59.9000 238° Southwest 420 483 40,000  Level Gander Center
Tue 12:36:58 PM 50.8667 -60.0333 232° Southwest 420 483 40,000  Level Gander Center
Tue 12:37:58 PM 50.8000 -60.2000 238° Southwest 420 483 40,000  Level Gander Center
Tue 12:38:58 PM 50.7333 -60.3500 235° Southwest 420 483 40,000  Level Gander Center
Tue 12:39:58 PM 50.6667 -60.5167 238° Southwest 420 483 40,000  Level Gander Center
Tue 12:40:58 PM 50.6000 -60.6500 232° Southwest 410 472 40,000  Level Gander Center
Tue 12:41:58 PM 50.5500 -60.8167 245° Southwest 410 472 40,000  Level Gander Center
Tue 12:42:58 PM 50.4667 -60.9667 229° Southwest 430 495 40,000  Level Gander Center
Tue 12:43:58 PM 50.4167 -61.1167 242° Southwest 420 483 40,000  Level Gander Center
Tue 12:44:58 PM 50.3333 -61.2833 232° Southwest 420 483 40,000  Level Gander Center
Tue 12:45:58 PM 50.2667 -61.4167 232° Southwest 420 483 40,000  Level Gander Center
Tue 12:46:58 PM 50.2000 -61.5667 235° Southwest 430 495 40,000  Level Gander Center
Tue 12:47:26 PM 50.1833 -61.6333 249° West 430 495 40,000  Level Moncton Center
Tue 12:48:26 PM 50.1167 -61.7833 235° Southwest 430 495 40,000  Level Moncton Center
Tue 12:48:58 PM 50.0667 -61.8833 232° Southwest 430 495 40,000  Level Gander Center
Tue 12:49:58 PM 50.0000 -62.0333 235° Southwest 430 495 40,000  Level Gander Center
Tue 12:50:58 PM 49.9333 -62.1667 232° Southwest 430 495 40,000  Level Gander Center
Tue 12:51:58 PM 49.8667 -62.3500 241° Southwest 420 483 40,000  Level Gander Center
Tue 12:52:26 PM 49.8333 -62.4000 224° Southwest 420 483 40,000  Level Moncton Center
Tue 12:53:26 PM 49.7667 -62.5500 236° Southwest 420 483 40,000  Level Moncton Center
Tue 12:53:58 PM 49.7333 -62.6333 238° Southwest 420 483 40,000  Level Gander Center
Tue 12:54:26 PM 49.7000 -62.6833 224° Southwest 420 483 40,000  Level Moncton Center
Tue 12:55:26 PM 49.6333 -62.8500 238° Southwest 420 483 40,000  Level Moncton Center
Tue 12:55:58 PM 49.5833 -62.9000 213° Southwest 420 483 40,000  Level Gander Center
Tue 12:56:58 PM 49.5167 -63.0667 238° Southwest 410 472 40,000  Level Gander Center
Tue 12:57:58 PM 49.4500 -63.2167 236° Southwest 420 483 40,000  Level Gander Center
Tue 12:58:58 PM 49.3833 -63.3667 236° Southwest 420 483 40,000  Level Gander Center
Tue 12:59:26 PM 49.3500 -63.4167 224° Southwest 420 483 40,000  Level Moncton Center
Tue 01:00:26 PM 49.2833 -63.5500 233° Southwest 420 483 40,000  Level Moncton Center
Tue 01:01:26 PM 49.2167 -63.7000 236° Southwest 420 483 40,000  Level Moncton Center
Tue 01:02:26 PM 49.1500 -63.8333 233° Southwest 420 483 40,000  Level Moncton Center
Tue 01:03:26 PM 49.0667 -63.9833 230° Southwest 420 483 40,000  Level Moncton Center
Tue 01:04:26 PM 49.0000 -64.1500 239° Southwest 420 483 40,000  Level Moncton Center
Tue 01:05:26 PM 48.9333 -64.2667 229° Southwest 420 483 40,000  Level Moncton Center
Tue 01:06:26 PM 48.8667 -64.4167 236° Southwest 420 483 40,000  Level Moncton Center
Tue 01:07:26 PM 48.8000 -64.5500 233° Southwest 420 483 40,000  Level Moncton Center
Tue 01:08:26 PM 48.7167 -64.7000 230° Southwest 410 472 40,000  Level Moncton Center
Tue 01:09:26 PM 48.6500 -64.8333 233° Southwest 410 472 40,000  Level Moncton Center
Tue 01:10:26 PM 48.5833 -64.9833 236° Southwest 410 472 40,000  Level Moncton Center
Tue 01:11:26 PM 48.5167 -65.1000 229° Southwest 400 460 40,000  Level Moncton Center
Tue 01:12:26 PM 48.4500 -65.2500 236° Southwest 410 472 40,000  Level Moncton Center
Tue 01:13:26 PM 48.3833 -65.3833 233° Southwest 410 472 40,000  Level Moncton Center
Tue 01:14:26 PM 48.3167 -65.5000 229° Southwest 400 460 40,000  Level Moncton Center
Tue 01:15:26 PM 48.2500 -65.6500 236° Southwest 410 472 40,000  Level Moncton Center
Tue 01:16:26 PM 48.1833 -65.7833 233° Southwest 400 460 40,000  Level Moncton Center
Tue 01:17:26 PM 48.1000 -65.9333 230° Southwest 400 460 40,000  Level Moncton Center
Tue 01:18:26 PM 48.0333 -66.0500 230° Southwest 410 472 40,000  Level Moncton Center
Tue 01:19:26 PM 47.9667 -66.2000 236° Southwest 410 472 40,000  Level Moncton Center
Tue 01:20:26 PM 47.9000 -66.3167 230° Southwest 410 472 40,000  Level Moncton Center
Tue 01:21:26 PM 47.8167 -66.4333 223° Southwest 400 460 40,000  Level Moncton Center
Tue 01:22:26 PM 47.7667 -66.5667 241° Southwest 400 460 40,000  Level Moncton Center
Tue 01:23:26 PM 47.6833 -66.7167 231° Southwest 400 460 40,000  Level Moncton Center
Tue 01:24:26 PM 47.6167 -66.8333 230° Southwest 390 449 40,000  Level Moncton Center
Tue 01:25:26 PM 47.5500 -66.9500 230° Southwest 390 449 40,000  Level Moncton Center
Tue 01:26:26 PM 47.4833 -67.0667 230° Southwest 390 449 40,000  Level Moncton Center
Tue 01:31:57 PM 47.1170 -67.7320 230° Southwest 397 457 40,000  Level FlightAware ADS-B
Tue 01:32:57 PM 47.0480 -67.8460 228° Southwest 397 457 40,000  Level FlightAware ADS-B
Tue 01:33:37 PM 47.0060 -67.9140 228° Southwest 397 457 40,000  Level FlightAware ADS-B
Tue 01:34:17 PM 46.9640 -67.9820 228° Southwest 397 457 40,000  Level FlightAware ADS-B
Tue 01:35:07 PM 47.0750 -67.8020 48° Northeast 40,000  Level FlightAware ADS-B
Tue 01:36:02 PM 46.8200 -68.2240 229° Southwest 405 466 40,000  Level FlightAware ADS-B
Tue 01:36:37 PM 46.7820 -68.2870 229° Southwest 405 466 40,000  Level FlightAware ADS-B
Tue 01:37:17 PM 46.7390 -68.3560 228° Southwest 405 466 40,000  Level FlightAware ADS-B
Tue 01:38:02 PM 46.6670 -68.4740 228° Southwest 407 468 40,000  Level FlightAware ADS-B
Tue 01:38:42 PM 46.6180 -68.5550 229° Southwest 406 467 40,000  Level FlightAware ADS-B
Tue 01:39:27 PM 46.5600 -68.6480 228° Southwest 409 471 40,000  Level FlightAware ADS-B
Tue 01:40:07 PM 46.5100 -68.7300 228° Southwest 410 472 40,000  Level FlightAware ADS-B
Tue 01:40:47 PM 46.4590 -68.8110 228° Southwest 408 470 40,000  Level FlightAware ADS-B
Tue 01:41:32 PM 46.4030 -68.9030 229° Southwest 410 472 40,000  Level FlightAware ADS-B
Tue 01:42:12 PM 46.3520 -68.9830 227° Southwest 409 471 40,000  Level FlightAware ADS-B
Tue 01:42:57 PM 46.2960 -69.0740 228° Southwest 407 468 40,000  Level FlightAware ADS-B
Tue 01:43:37 PM 46.2450 -69.1540 227° Southwest 407 468 40,000  Level FlightAware ADS-B
Tue 01:44:17 PM 46.1950 -69.2340 228° Southwest 407 468 40,000  Level FlightAware ADS-B
Tue 01:45:02 PM 46.1390 -69.3240 228° Southwest 406 467 40,000  Level FlightAware ADS-B
Tue 01:45:42 PM 46.0880 -69.4040 227° Southwest 407 468 40,000  Level FlightAware ADS-B
Tue 01:46:27 PM 46.0310 -69.4940 228° Southwest 406 467 40,000 -141 Level FlightAware ADS-B
Tue 01:47:07 PM 45.9810 -69.5720 227° Southwest 403 464 39,800 -600 Descending FlightAware ADS-B
Tue 01:47:47 PM 45.9310 -69.6510 228° Southwest 397 457 39,200 -988 Descending FlightAware ADS-B
Tue 01:48:32 PM 45.8760 -69.7370 227° Southwest 394 453 38,400 -847 Descending FlightAware ADS-B
Tue 01:49:12 PM 45.8270 -69.8130 227° Southwest 397 457 38,000 -300 Descending FlightAware ADS-B
Tue 01:49:52 PM 45.7770 -69.8910 227° Southwest 402 463 38,000  Level FlightAware ADS-B
Tue 01:50:37 PM 45.7200 -69.9790 227° Southwest 402 463 38,000  Level FlightAware ADS-B
Tue 01:51:17 PM 45.6700 -70.0570 227° Southwest 406 467 38,000  Level FlightAware ADS-B
Tue 01:52:02 PM 45.6130 -70.1450 227° Southwest 407 468 38,000  Level FlightAware ADS-B
Tue 01:52:42 PM 45.5620 -70.2230 227° Southwest 405 466 38,000  Level FlightAware ADS-B
Tue 01:53:27 PM 45.5050 -70.3120 228° Southwest 404 465 38,000  Level FlightAware ADS-B
Tue 01:54:07 PM 45.4540 -70.3890 227° Southwest 403 464 38,000  Level FlightAware ADS-B
Tue 01:54:47 PM 45.4030 -70.4660 227° Southwest 402 463 38,000  Level FlightAware ADS-B
Tue 01:55:32 PM 45.3470 -70.5520 227° Southwest 401 461 38,000  Level FlightAware ADS-B
Tue 01:56:12 PM 45.2960 -70.6290 227° Southwest 398 458 38,000  Level FlightAware ADS-B
Tue 01:56:57 PM 45.2410 -70.7120 227° Southwest 396 456 38,000  Level FlightAware ADS-B
Tue 01:57:37 PM 45.1900 -70.7890 227° Southwest 399 459 38,000  Level FlightAware ADS-B
Tue 01:58:17 PM 45.1400 -70.8650 227° Southwest 398 458 38,000  Level FlightAware ADS-B
Tue 01:59:02 PM 45.0830 -70.9500 226° Southwest 398 458 38,000  Level FlightAware ADS-B
Tue 01:59:42 PM 45.0330 -71.0240 226° Southwest 398 458 38,000  Level FlightAware ADS-B
Tue 02:00:22 PM 44.9820 -71.1000 227° Southwest 401 461 38,000  Level FlightAware ADS-B
Tue 02:01:07 PM 44.9260 -71.1840 227° Southwest 398 458 38,000  Level FlightAware ADS-B
Tue 02:01:47 PM 44.8740 -71.2600 226° Southwest 400 460 38,000  Level FlightAware ADS-B
Tue 02:02:32 PM 44.8180 -71.3440 227° Southwest 398 458 38,000  Level FlightAware ADS-B
Tue 02:03:12 PM 44.7680 -71.4160 226° Southwest 395 455 38,000  Level FlightAware ADS-B
Tue 02:03:57 PM 44.7080 -71.5040 226° Southwest 396 456 38,000  Level FlightAware ADS-B
Tue 02:04:37 PM 44.6610 -71.5730 226° Southwest 395 455 38,000  Level FlightAware ADS-B
Tue 02:05:17 PM 44.6100 -71.6480 226° Southwest 389 448 38,000  Level FlightAware ADS-B
Tue 02:06:02 PM 44.5540 -71.7300 226° Southwest 388 447 38,000  Level FlightAware ADS-B
Tue 02:06:42 PM 44.5060 -71.7990 226° Southwest 386 444 38,000  Level FlightAware ADS-B
Tue 02:07:27 PM 44.4470 -71.8850 226° Southwest 385 443 38,000  Level FlightAware ADS-B
Tue 02:08:07 PM 44.3980 -71.9550 226° Southwest 385 443 38,000  Level FlightAware ADS-B
Tue 02:08:47 PM 44.3480 -72.0270 226° Southwest 386 444 38,000  Level FlightAware ADS-B
Tue 02:09:27 PM 44.3000 -72.0950 225° Southwest 386 444 38,000  Level FlightAware ADS-B
Tue 02:10:12 PM 44.2420 -72.1780 226° Southwest 388 447 38,000  Level FlightAware ADS-B
Tue 02:10:57 PM 44.1900 -72.2520 226° Southwest 388 447 38,000  Level FlightAware ADS-B
Tue 02:11:37 PM 44.1360 -72.3290 226° Southwest 389 448 38,000  Level FlightAware ADS-B
Tue 02:12:17 PM 44.0850 -72.4010 225° Southwest 388 447 38,000  Level FlightAware ADS-B
Tue 02:13:02 PM 44.0280 -72.4810 225° Southwest 387 445 38,000  Level FlightAware ADS-B
Tue 02:13:42 PM 43.9770 -72.5530 225° Southwest 387 445 38,000  Level FlightAware ADS-B
Tue 02:14:22 PM 43.9270 -72.6230 225° Southwest 389 448 38,000  Level FlightAware ADS-B
Tue 02:15:07 PM 43.8700 -72.7020 225° Southwest 390 449 38,000  Level FlightAware ADS-B
Tue 02:15:47 PM 43.8210 -72.7710 225° Southwest 388 447 38,000  Level FlightAware ADS-B
Tue 02:16:32 PM 43.7610 -72.8540 225° Southwest 395 455 38,000  Level FlightAware ADS-B
Tue 02:17:12 PM 43.7100 -72.9250 225° Southwest 395 455 38,000  Level FlightAware ADS-B
Tue 02:17:57 PM 43.6520 -73.0040 225° Southwest 393 452 38,000 -635 Level FlightAware ADS-B
Tue 02:18:37 PM 43.6020 -73.0740 225° Southwest 397 457 37,100 -1,482 Descending FlightAware ADS-B
Tue 02:19:22 PM 43.5420 -73.1570 225° Southwest 404 465 35,900 -1,341 Descending FlightAware ADS-B
Tue 02:20:02 PM 43.4880 -73.2300 224° Southwest 400 460 35,200 -1,125 Descending FlightAware ADS-B
Tue 02:20:42 PM 43.4350 -73.3020 225° Southwest 398 458 34,400 -1,976 Descending FlightAware ADS-B
Tue 02:21:27 PM 43.3800 -73.3770 225° Southwest 405 466 32,400 -2,925 Descending FlightAware ADS-B
Tue 02:22:02 PM 43.3420 -73.4290 225° Southwest 417 480 30,500 -3,975 Descending FlightAware ADS-B
Tue 02:22:47 PM 43.2790 -73.5130 224° Southwest 433 498 27,100 -2,541 Descending FlightAware ADS-B
Tue 02:23:27 PM 43.2290 -73.5800 224° Southwest 438 504 26,900 -3,686 Descending FlightAware ADS-B
Tue 02:23:57 PM 43.1470 -73.6340 206° Southwest 436 502 22,800 -3,933 Descending FlightAware ADS-B
Tue 02:24:57 PM 43.0370 -73.6810 197° South 424 488 21,000 -1,920 Descending FlightAware ADS-B
Tue 02:25:37 PM 42.9600 -73.7130 197° South 415 478 19,600 -2,057 Descending FlightAware ADS-B
Tue 02:26:07 PM 42.9050 -73.7360 197° South 406 467 18,600 -2,057 Descending FlightAware ADS-B
Tue 02:26:47 PM 42.8370 -73.7640 197° South 382 440 17,200 -1,976 Descending FlightAware ADS-B
Tue 02:27:32 PM 42.7640 -73.7940 197° South 365 420 15,800 -988 Descending FlightAware ADS-B
Tue 02:28:12 PM 42.7020 -73.8210 198° South 349 402 15,800  Level FlightAware ADS-B
Tue 02:28:52 PM 42.6440 -73.8470 198° South 349 402 15,800  Level FlightAware ADS-B
Tue 02:29:37 PM 42.5680 -73.8810 198° South 352 405 15,800  Level FlightAware ADS-B
Tue 02:30:12 PM 42.5180 -73.9020 197° South 354 407 15,800  Level FlightAware ADS-B
Tue 02:30:52 PM 42.4650 -73.9240 197° South 354 407 15,800  Level FlightAware ADS-B
Tue 02:31:42 PM 42.3980 -73.9510 197° South 354 407 15,800  Level FlightAware ADS-B
Tue 02:32:12 PM 42.3580 -73.9680 197° South 354 407 15,800  Level FlightAware ADS-B
Tue 02:32:52 PM 42.3050 -73.9900 197° South 354 407 15,800  Level FlightAware ADS-B
Tue 02:33:32 PM 42.2520 -74.0120 197° South 354 407 15,800 57 Level FlightAware ADS-B
Tue 02:34:37 PM 42.1594 -74.0672 197° South 296 341 15,900 -192 Climbing Boston Center
Tue 02:35:37 PM 42.0714 -74.1042 197° South 296 341 15,400 -397 Descending Boston Center
Tue 02:36:38 PM 41.9958 -74.1386 199° South 291 335 15,100 -344 Descending Boston Center
Tue 02:37:39 PM 41.9308 -74.1675 198° South 291 335 14,700 -1,123 Descending Boston Center
Tue 02:42:52 PM 41.5580 -74.2350 198° South 245 282 8,100 -1,172 Descending FlightAware ADS-B
Tue 02:43:17 PM 41.5340 -74.2530 209° Southwest 245 282 8,100  Level FlightAware ADS-B
Tue 02:43:47 PM 41.5080 -74.2710 207° Southwest 245 282 8,100  Level FlightAware ADS-B
Tue 02:44:07 PM 41.4910 -74.2830 208° Southwest 245 282 8,100  Level FlightAware ADS-B
Tue 02:44:27 PM 41.4740 -74.2950 208° Southwest 245 282 8,100 -255 Level FlightAware ADS-B
Tue 02:49:37 PM 41.1300 -74.4910 203° Southwest 255 293 6,700 -273 Descending FlightAware ADS-B
Tue 02:50:19 PM 41.0755 -74.5030 189° South 270 311 6,500 -560 Descending FlightAware ADS-B
Tue 02:50:52 PM 41.0490 -74.4670 134° Southeast 290 334 6,000 -1,143 Descending FlightAware ADS-B
Tue 02:51:01 PM 41.0437 -74.4467 109° East 289 333 5,700 -600 Descending FlightAware ADS-B
Tue 02:51:32 PM 41.0330 -74.4040 108° East 289 333 5,600 -1,421 Descending FlightAware ADS-B
Tue 02:51:39 PM 41.0274 -74.3850 111° Southeast 289 333 4,800 -2,455 Descending FlightAware ADS-B
Tue 02:51:54 PM 41.0205 -74.3603 110° East 270 311 4,700 -194 Descending FlightAware ADS-B
Tue 02:52:10 PM 41.0138 -74.3362 110° East 258 297 4,700 -474 Level FlightAware ADS-B
Tue 02:52:32 PM 41.0056 -74.3053 109° East 253 291 4,400 -818 Descending FlightAware ADS-B
Tue 02:52:54 PM 40.9969 -74.2729 110° East 253 291 4,100 -840 Descending FlightAware ADS-B
Tue 02:53:22 PM 40.9854 -74.2321 110° East 247 284 3,700 -414 Descending FlightAware ADS-B
Tue 02:53:52 PM 40.9740 -74.1940 112° Southeast 247 284 3,700  Level FlightAware ADS-B
Tue 02:54:23 PM 40.9615 -74.1524 112° Southeast 212 244 3,700  Level FlightAware ADS-B
Tue 02:54:41 PM 40.9558 -74.1322 110° East 189 217 3,700 -98 Level FlightAware ADS-B
Tue 02:55:24 PM 40.9393 -74.0892 117° Southeast 187 215 3,600 -327 Descending FlightAware ADS-B
Tue 02:55:36 PM 40.9313 -74.0802 140° Southeast 177 204 3,400 -955 Descending FlightAware ADS-B
Tue 02:56:08 PM 40.9117 -74.0580 139° Southeast 174 200 2,900 -689 Descending FlightAware ADS-B
Tue 02:56:37 PM 40.8908 -74.0491 162° South 174 200 2,700 -364 Descending FlightAware ADS-B
Tue 02:56:41 PM 40.8885 -74.0487 173° South 165 190 2,700  Level FlightAware ADS-B
Tue 02:57:14 PM 40.8624 -74.0453 174° South 182 209 2,700  Level FlightAware ADS-B
Tue 02:57:18 PM 40.8592 -74.0453 180° South 182 209 2,700  Level FlightAware ADS-B
Tue 02:57:22 PM 40.8554 -74.0458 186° South 182 209 2,700  Level FlightAware ADS-B
Tue 02:57:28 PM 40.8509 -74.0472 193° South 184 212 2,700  Level FlightAware ADS-B
Tue 02:57:39 PM 40.8425 -74.0511 199° South 173 199 2,700 -500 Level FlightAware ADS-B
Tue 02:57:52 PM 40.8329 -74.0565 203° Southwest 175 201 2,500 -1,000 Descending FlightAware ADS-B
Tue 02:58:27 PM 40.8067 -74.0736 206° Southwest 178 205 1,900 -947 Descending FlightAware ADS-B
Tue 02:58:49 PM 40.7912 -74.0837 206° Southwest 165 190 1,600 -882 Descending FlightAware ADS-B
Tue 02:59:01 PM 40.7831 -74.0889 206° Southwest 153 176 1,400 -900 Descending FlightAware ADS-B
Tue 02:59:09 PM 40.7783 -74.0920 206° Southwest 150 173 1,300 -692 Descending FlightAware ADS-B
Tue 02:59:27 PM 40.7673 -74.0990 206° Southwest 140 161 1,100 -750 Descending FlightAware ADS-B
Tue 02:59:41 PM 40.7605 -74.1038 208° Southwest 118 136 900 -643 Descending FlightAware ADS-B
Tue 02:59:55 PM 40.7538 -74.1082 206° Southwest 118 136 800 -429 Descending FlightAware ADS-B

Login

Don't have an account? Register now (free) for customized features, flight alerts, and more!